Time;durP1;ratioP1;P1;durP2;ratioP2;P2;SDS_P1;SDS_P2;PMS_P1;PMS_P2;Temp;Humidity;BMP_temperature;BMP_pressure;BME280_temperature;BME280_humidity;BME280_pressure;Samples;Min_cycle;Max_cycle;Signal;HPM_P1;HPM_P2
2022/07/11 00:02:04;;;;;;;1.17;0.30;;;15.60;99.90;;;;;;4846070;29;20092;-86
2022/07/11 00:04:30;;;;;;;0.70;0.40;;;15.60;99.90;;;;;;4845828;29;20403;-86
2022/07/11 00:06:57;;;;;;;0.45;0.30;;;15.60;99.90;;;;;;4862351;29;20054;-86
2022/07/11 00:09:23;;;;;;;1.05;0.35;;;15.60;99.90;;;;;;4829303;29;20050;-86
2022/07/11 00:11:49;;;;;;;0.45;0.30;;;15.60;99.90;;;;;;4862119;29;20076;-86
2022/07/11 00:14:16;;;;;;;0.88;0.30;;;15.60;99.90;;;;;;4861863;29;20154;-87
2022/07/11 00:16:41;;;;;;;0.85;0.50;;;15.60;99.90;;;;;;4863248;29;20041;-84
2022/07/11 00:19:07;;;;;;;1.10;0.40;;;15.60;99.90;;;;;;4864722;29;20057;-86
2022/07/11 00:21:34;;;;;;;0.85;0.40;;;15.60;99.90;;;;;;4848606;29;20117;-86
2022/07/11 00:24:00;;;;;;;1.30;0.45;;;15.60;99.90;;;;;;4862979;29;20046;-86
2022/07/11 00:26:26;;;;;;;0.90;0.40;;;15.50;99.90;;;;;;4867485;29;20053;-87
2022/07/11 00:28:52;;;;;;;0.30;0.20;;;15.50;99.90;;;;;;4849130;29;20128;-86
2022/07/11 00:31:17;;;;;;;0.95;0.40;;;15.50;99.90;;;;;;4861864;29;20049;-86
2022/07/11 00:33:43;;;;;;;0.55;0.40;;;15.50;99.90;;;;;;4861467;29;20037;-87
2022/07/11 00:36:09;;;;;;;0.68;0.50;;;15.50;99.90;;;;;;4861732;29;20078;-87
2022/07/11 00:38:35;;;;;;;3.55;0.45;;;15.50;99.90;;;;;;4861500;29;20041;-86
2022/07/11 00:41:00;;;;;;;1.08;0.50;;;15.50;99.90;;;;;;4861598;29;20051;-87
2022/07/11 00:43:31;;;;;;;0.82;0.43;;;15.50;99.90;;;;;;4844223;29;20411;-87
2022/07/11 00:45:57;;;;;;;2.63;0.60;;;15.40;99.90;;;;;;4861281;29;20052;-87
2022/07/11 00:48:22;;;;;;;0.77;0.40;;;15.50;99.90;;;;;;4861116;29;20042;-87
2022/07/11 00:50:48;;;;;;;1.00;0.50;;;15.50;99.90;;;;;;4861424;29;20404;-87
2022/07/11 00:53:14;;;;;;;0.55;0.32;;;15.40;99.90;;;;;;4861224;29;20061;-86
2022/07/11 00:55:41;;;;;;;2.05;0.50;;;15.40;99.90;;;;;;4861267;29;20381;-86
2022/07/11 00:58:07;;;;;;;1.00;0.52;;;15.40;99.90;;;;;;4844365;29;20067;-88
2022/07/11 01:00:33;;;;;;;0.95;0.43;;;15.40;99.90;;;;;;4861047;29;20045;-88
2022/07/11 01:02:58;;;;;;;1.77;0.70;;;15.40;99.90;;;;;;4860111;29;20046;-87
2022/07/11 01:05:24;;;;;;;1.10;0.50;;;15.40;99.90;;;;;;4861089;29;20060;-87
2022/07/11 01:07:50;;;;;;;1.02;0.50;;;15.40;99.90;;;;;;4860968;29;20052;-86
2022/07/11 01:10:16;;;;;;;1.85;0.80;;;15.50;99.90;;;;;;4860540;29;20051;-87
2022/07/11 01:12:41;;;;;;;1.05;0.70;;;15.40;99.90;;;;;;4860322;29;20101;-86
2022/07/11 01:15:07;;;;;;;0.82;0.60;;;15.40;99.90;;;;;;4860932;29;20509;-87
2022/07/11 01:17:33;;;;;;;4.70;0.75;;;15.40;99.90;;;;;;4843817;29;20045;-87
2022/07/11 01:20:00;;;;;;;1.88;0.73;;;15.40;99.90;;;;;;4860736;29;20399;-86
2022/07/11 01:22:28;;;;;;;1.27;0.50;;;15.40;99.90;;;;;;4860423;29;20046;-87
2022/07/11 01:24:54;;;;;;;1.08;0.70;;;15.40;99.90;;;;;;4860762;29;20234;-87
2022/07/11 01:27:22;;;;;;;0.68;0.50;;;15.40;99.90;;;;;;4859179;29;20049;-87
2022/07/11 01:29:48;;;;;;;1.35;0.68;;;15.30;99.90;;;;;;4844007;29;20049;-87
2022/07/11 01:32:13;;;;;;;0.90;0.50;;;15.40;99.90;;;;;;4860523;29;20052;-86
2022/07/11 01:34:39;;;;;;;3.28;0.80;;;15.40;99.90;;;;;;4860959;29;20049;-87
2022/07/11 01:37:05;;;;;;;1.48;0.50;;;15.40;99.90;;;;;;4860477;29;20487;-86
2022/07/11 01:39:31;;;;;;;0.52;0.40;;;15.30;99.90;;;;;;4860730;29;20557;-87
2022/07/11 01:41:57;;;;;;;1.20;0.60;;;15.30;99.90;;;;;;4859926;29;20094;-86
2022/07/11 01:44:23;;;;;;;1.42;0.70;;;15.60;99.90;;;;;;4860521;29;20056;-85
2022/07/11 01:46:49;;;;;;;0.65;0.50;;;15.70;99.90;;;;;;4860217;29;20053;-87
2022/07/11 01:49:15;;;;;;;0.77;0.40;;;15.40;99.90;;;;;;4860418;29;20057;-87
2022/07/11 01:51:42;;;;;;;1.10;0.60;;;15.30;99.90;;;;;;4860534;29;20045;-86
2022/07/11 01:54:08;;;;;;;0.68;0.40;;;15.40;99.90;;;;;;4860562;29;20460;-86
2022/07/11 01:56:34;;;;;;;0.70;0.40;;;15.50;99.90;;;;;;4843201;29;20144;-87
2022/07/11 01:59:01;;;;;;;0.80;0.60;;;15.30;99.90;;;;;;4860246;29;20411;-87
2022/07/11 02:01:26;;;;;;;1.55;0.70;;;15.30;99.90;;;;;;4859933;29;20049;-87
2022/07/11 02:03:52;;;;;;;1.35;0.60;;;15.50;99.90;;;;;;4843870;29;20114;-85
2022/07/11 02:06:18;;;;;;;1.35;0.55;;;15.30;99.90;;;;;;4860285;29;20050;-86
2022/07/11 02:08:44;;;;;;;0.95;0.55;;;15.30;99.90;;;;;;4860203;29;20415;-86
2022/07/11 02:11:09;;;;;;;1.02;0.50;;;15.30;99.90;;;;;;4860284;29;20049;-87
2022/07/11 02:13:35;;;;;;;1.10;0.60;;;15.30;99.90;;;;;;4860011;29;20125;-87
2022/07/11 02:16:02;;;;;;;1.63;0.60;;;15.30;99.90;;;;;;4861958;29;20503;-86
2022/07/11 02:18:28;;;;;;;0.90;0.52;;;15.40;99.90;;;;;;4863642;29;20130;-86
2022/07/11 02:20:55;;;;;;;0.80;0.60;;;15.40;99.90;;;;;;4863974;29;20057;-87
2022/07/11 02:23:21;;;;;;;1.65;0.47;;;15.40;99.90;;;;;;4847182;29;20190;-85
2022/07/11 02:25:48;;;;;;;0.75;0.40;;;15.30;99.90;;;;;;4863052;29;20124;-86
2022/07/11 02:28:14;;;;;;;2.00;0.40;;;15.30;99.90;;;;;;4831944;29;20411;-86
2022/07/11 02:30:42;;;;;;;0.85;0.40;;;15.30;99.90;;;;;;4863421;29;20041;-87
2022/07/11 02:33:11;;;;;;;1.55;0.50;;;15.30;99.90;;;;;;4863096;29;20435;-86
2022/07/11 02:35:37;;;;;;;0.70;0.50;;;15.40;99.90;;;;;;4863805;29;20050;-86
2022/07/11 02:38:03;;;;;;;0.50;0.45;;;15.40;99.90;;;;;;4847262;29;20049;-86
2022/07/11 02:40:29;;;;;;;1.27;0.40;;;15.40;99.90;;;;;;4863534;29;20106;-86
2022/07/11 02:42:55;;;;;;;0.60;0.30;;;15.40;99.90;;;;;;4863478;29;20056;-86
2022/07/11 02:45:21;;;;;;;0.40;0.30;;;15.40;99.90;;;;;;4863347;29;20487;-85
2022/07/11 02:47:47;;;;;;;1.77;0.50;;;15.40;99.90;;;;;;4863512;29;20045;-86
2022/07/11 02:50:14;;;;;;;0.50;0.40;;;15.60;99.90;;;;;;4846235;29;20464;-86
2022/07/11 02:52:41;;;;;;;2.13;0.50;;;15.50;99.90;;;;;;4863398;29;20074;-85
2022/07/11 02:55:09;;;;;;;2.35;0.63;;;15.50;99.90;;;;;;4863548;29;20431;-85
2022/07/11 02:57:36;;;;;;;0.55;0.40;;;15.50;99.90;;;;;;4846935;29;20097;-86
2022/07/11 03:00:04;;;;;;;0.50;0.30;;;15.40;99.90;;;;;;4846306;29;20080;-86
2022/07/11 03:02:30;;;;;;;1.67;0.35;;;15.40;99.90;;;;;;4862974;29;20116;-86
2022/07/11 03:04:57;;;;;;;0.73;0.30;;;15.50;99.90;;;;;;4846225;29;20045;-86
2022/07/11 03:07:28;;;;;;;0.40;0.30;;;15.30;99.90;;;;;;4846407;29;20073;-87
2022/07/11 03:09:54;;;;;;;0.50;0.35;;;15.30;99.90;;;;;;4863011;29;20058;-86
2022/07/11 03:12:20;;;;;;;0.45;0.35;;;15.40;99.90;;;;;;4862801;29;20057;-87
2022/07/11 03:14:46;;;;;;;0.95;0.50;;;15.40;99.90;;;;;;4862908;29;20410;-85
2022/07/11 03:17:12;;;;;;;2.03;0.40;;;15.50;99.90;;;;;;4846327;29;20146;-85
2022/07/11 03:19:37;;;;;;;0.77;0.30;;;15.50;99.90;;;;;;4863110;29;20093;-86
2022/07/11 03:22:04;;;;;;;0.30;0.20;;;15.40;99.90;;;;;;4862613;29;20044;-86
2022/07/11 03:24:30;;;;;;;0.95;0.30;;;15.40;99.90;;;;;;4862759;29;20082;-86
2022/07/11 03:26:56;;;;;;;2.60;0.40;;;15.40;99.90;;;;;;4845524;29;20088;-86
2022/07/11 03:29:22;;;;;;;1.38;0.40;;;15.40;99.90;;;;;;4846149;29;20436;-86
2022/07/11 03:31:48;;;;;;;0.57;0.20;;;15.20;99.90;;;;;;4862143;29;20049;-86
2022/07/11 03:34:14;;;;;;;1.15;0.30;;;15.40;99.90;;;;;;4862743;29;20201;-86
2022/07/11 03:36:39;;;;;;;1.58;0.20;;;15.40;99.90;;;;;;4862400;29;20037;-85
2022/07/11 03:39:05;;;;;;;1.45;0.30;;;15.30;99.90;;;;;;4862334;29;20045;-85
2022/07/11 03:41:31;;;;;;;0.30;0.20;;;15.10;99.90;;;;;;4845517;29;20136;-86
2022/07/11 03:43:57;;;;;;;1.27;0.30;;;15.30;99.90;;;;;;4862381;29;20376;-85
2022/07/11 03:46:23;;;;;;;0.43;0.30;;;15.40;99.90;;;;;;4845865;29;20514;-86
2022/07/11 03:48:49;;;;;;;1.10;0.25;;;15.40;99.90;;;;;;4862270;29;20132;-85
2022/07/11 03:51:16;;;;;;;0.47;0.30;;;15.40;99.90;;;;;;4846032;29;20137;-85
2022/07/11 03:53:43;;;;;;;0.38;0.30;;;15.30;99.90;;;;;;4862988;29;20077;-87
2022/07/11 03:56:09;;;;;;;1.45;0.22;;;15.30;99.90;;;;;;4862025;29;20124;-85
2022/07/11 03:58:35;;;;;;;0.65;0.20;;;15.40;99.90;;;;;;4862383;29;20085;-86
2022/07/11 04:01:01;;;;;;;1.17;0.20;;;15.50;99.90;;;;;;4862460;29;20494;-86
2022/07/11 04:03:26;;;;;;;1.05;0.20;;;15.40;99.90;;;;;;4862211;29;20045;-85
2022/07/11 04:05:52;;;;;;;0.50;0.20;;;15.50;99.90;;;;;;4862315;29;20066;-86
2022/07/11 04:08:18;;;;;;;0.20;0.10;;;15.40;99.90;;;;;;4862044;29;20403;-86
2022/07/11 04:10:44;;;;;;;0.40;0.20;;;15.40;99.90;;;;;;4861633;29;20049;-86
2022/07/11 04:13:09;;;;;;;0.98;0.47;;;15.50;99.90;;;;;;4861722;29;20171;-85
2022/07/11 04:15:36;;;;;;;0.30;0.20;;;15.40;99.90;;;;;;4861601;29;20132;-86
2022/07/11 04:18:03;;;;;;;0.10;0.10;;;15.50;99.90;;;;;;4845217;29;20058;-86
2022/07/11 04:20:28;;;;;;;0.45;0.10;;;15.40;99.90;;;;;;4845425;29;20045;-86
2022/07/11 04:22:54;;;;;;;0.47;0.20;;;15.30;99.90;;;;;;4845427;29;20124;-86
2022/07/11 04:25:20;;;;;;;0.85;0.30;;;15.30;99.90;;;;;;4861661;29;20053;-85
2022/07/11 04:27:45;;;;;;;0.77;0.17;;;15.40;99.90;;;;;;4844942;29;20054;-86
2022/07/11 04:30:11;;;;;;;0.17;0.10;;;15.30;99.90;;;;;;4860754;29;20138;-85
2022/07/11 04:32:37;;;;;;;0.63;0.32;;;15.30;99.90;;;;;;4861543;29;20428;-86
2022/07/11 04:35:03;;;;;;;0.43;0.20;;;15.30;99.90;;;;;;4861794;29;20057;-86
2022/07/11 04:37:29;;;;;;;0.50;0.10;;;15.40;99.90;;;;;;4860816;29;20064;-85
2022/07/11 04:39:55;;;;;;;2.65;0.28;;;15.50;99.90;;;;;;4861194;29;20444;-85
2022/07/11 04:42:20;;;;;;;0.17;0.10;;;15.50;99.90;;;;;;4829680;29;20419;-86
2022/07/11 04:44:46;;;;;;;2.63;0.22;;;15.40;99.90;;;;;;4844606;29;20041;-85
2022/07/11 04:47:12;;;;;;;1.52;0.10;;;15.50;99.90;;;;;;4860932;29;20078;-86
2022/07/11 04:49:38;;;;;;;0.47;0.10;;;15.50;99.90;;;;;;4860574;29;20396;-85
2022/07/11 04:52:05;;;;;;;0.32;0.20;;;15.40;99.90;;;;;;4844893;29;20102;-85
2022/07/11 04:54:30;;;;;;;0.85;0.10;;;15.40;99.90;;;;;;4861348;29;20046;-86
2022/07/11 04:56:56;;;;;;;0.45;0.10;;;15.60;99.90;;;;;;4844815;29;20049;-86
2022/07/11 04:59:26;;;;;;;0.68;0.10;;;15.50;99.90;;;;;;4861133;29;20041;-85
2022/07/11 05:01:51;;;;;;;0.25;0.20;;;15.60;99.90;;;;;;4844441;29;20049;-86
2022/07/11 05:04:17;;;;;;;0.10;0.10;;;15.60;99.90;;;;;;4844378;29;20076;-86
2022/07/11 05:06:43;;;;;;;0.47;0.20;;;15.60;99.90;;;;;;4844727;29;20053;-85
2022/07/11 05:09:10;;;;;;;0.20;0.10;;;15.70;99.90;;;;;;4861392;29;20057;-86
2022/07/11 05:11:36;;;;;;;0.10;0.10;;;15.70;99.90;;;;;;4860635;29;20125;-87
2022/07/11 05:14:01;;;;;;;0.22;0.10;;;15.80;99.90;;;;;;4843732;29;20073;-87
2022/07/11 05:16:27;;;;;;;0.20;0.10;;;15.80;99.90;;;;;;4861008;29;20201;-86
2022/07/11 05:18:55;;;;;;;0.35;0.10;;;15.80;99.90;;;;;;4861235;29;20052;-90
2022/07/11 05:21:23;;;;;;;0.85;0.08;;;15.80;99.90;;;;;;4845015;29;20053;-89
2022/07/11 05:23:50;;;;;;;0.30;0.10;;;15.80;99.90;;;;;;4853288;29;20093;-89
2022/07/11 05:26:17;;;;;;;1.85;0.10;;;15.80;99.90;;;;;;4844294;29;20053;-90
2022/07/11 05:28:42;;;;;;;0.05;0.05;;;15.60;99.90;;;;;;4859814;29;20427;-86
2022/07/11 05:31:08;;;;;;;0.13;0.10;;;15.80;99.90;;;;;;4860817;29;20049;-89
2022/07/11 05:33:35;;;;;;;0.20;0.10;;;15.70;99.90;;;;;;4844190;29;20140;-90
2022/07/11 05:36:01;;;;;;;0.43;0.00;;;15.80;99.90;;;;;;4843934;29;20050;-87
2022/07/11 05:38:27;;;;;;;0.73;0.10;;;15.80;99.90;;;;;;4843972;29;20045;-87
2022/07/11 05:40:53;;;;;;;0.50;0.00;;;15.70;99.90;;;;;;4860706;29;20056;-87
2022/07/11 05:43:19;;;;;;;0.63;0.05;;;15.80;99.90;;;;;;4843932;29;20057;-87
2022/07/11 05:45:44;;;;;;;0.20;0.10;;;15.80;99.90;;;;;;4860390;29;20049;-86
2022/07/11 05:48:10;;;;;;;0.17;0.15;;;15.80;99.90;;;;;;4831213;29;20072;-86
2022/07/11 05:50:36;;;;;;;0.10;0.05;;;15.80;99.90;;;;;;4855284;29;20116;-87
2022/07/11 05:53:08;;;;;;;0.88;0.05;;;15.90;99.90;;;;;;4844310;29;20487;-90
2022/07/11 05:55:33;;;;;;;0.20;0.10;;;15.90;99.90;;;;;;4843859;29;20128;-87
2022/07/11 05:58:02;;;;;;;0.40;0.10;;;16.00;99.90;;;;;;4860440;29;20124;-86
2022/07/11 06:00:28;;;;;;;0.10;0.00;;;16.10;99.90;;;;;;4843433;29;20515;-85
2022/07/11 06:02:54;;;;;;;0.00;0.00;;;16.00;99.90;;;;;;4843662;29;20056;-86
2022/07/11 06:05:20;;;;;;;0.10;0.10;;;16.10;99.90;;;;;;4842949;29;20436;-86
2022/07/11 06:10:31;;;;;;;0.25;0.00;;;16.20;99.90;;;;;;4845244;29;20411;-86
2022/07/11 06:12:58;;;;;;;0.40;0.10;;;16.20;99.90;;;;;;4859917;29;20062;-85
2022/07/11 06:15:24;;;;;;;0.17;0.10;;;16.30;99.90;;;;;;4843635;29;20058;-85
2022/07/11 06:17:50;;;;;;;0.22;0.10;;;16.30;99.90;;;;;;4860275;29;20054;-86
2022/07/11 06:20:16;;;;;;;1.40;0.10;;;16.40;99.90;;;;;;4860407;29;20050;-86
2022/07/11 06:22:42;;;;;;;0.17;0.10;;;16.40;99.90;;;;;;4859170;29;20052;-86
2022/07/11 06:25:09;;;;;;;0.20;0.10;;;16.40;99.90;;;;;;4843733;29;20481;-85
2022/07/11 06:27:35;;;;;;;0.00;0.00;;;16.50;99.90;;;;;;4843495;29;20129;-85
2022/07/11 06:30:02;;;;;;;0.70;0.20;;;16.50;99.90;;;;;;4859986;29;20137;-85
2022/07/11 06:32:28;;;;;;;0.10;0.00;;;16.60;99.90;;;;;;4843470;29;20053;-86
2022/07/11 06:34:54;;;;;;;0.13;0.00;;;16.50;99.90;;;;;;4860304;29;20083;-85
2022/07/11 06:37:19;;;;;;;0.10;0.10;;;16.50;99.90;;;;;;4859754;29;20100;-85
2022/07/11 06:39:45;;;;;;;0.73;0.20;;;16.50;99.90;;;;;;4860129;29;20102;-86
2022/07/11 06:42:11;;;;;;;0.22;0.10;;;16.50;99.90;;;;;;4843208;29;20053;-85
2022/07/11 06:44:37;;;;;;;0.20;0.10;;;16.70;99.90;;;;;;4843626;29;20046;-86
2022/07/11 06:47:03;;;;;;;0.25;0.00;;;16.80;99.90;;;;;;4843503;29;20140;-86
2022/07/11 06:49:28;;;;;;;0.20;0.10;;;16.70;99.90;;;;;;4843202;29;20094;-86
2022/07/11 06:51:54;;;;;;;0.20;0.10;;;16.70;99.90;;;;;;4860111;29;20046;-86
2022/07/11 06:54:20;;;;;;;0.68;0.10;;;16.80;99.90;;;;;;4843399;29;20060;-86
2022/07/11 06:56:45;;;;;;;0.10;0.00;;;16.90;99.90;;;;;;4859524;29;20056;-86
2022/07/11 06:59:11;;;;;;;0.95;0.10;;;17.00;99.90;;;;;;4860117;29;20590;-86
2022/07/11 07:01:37;;;;;;;0.40;0.10;;;17.10;99.90;;;;;;4843522;29;20045;-84
2022/07/11 07:04:03;;;;;;;0.57;0.10;;;17.10;99.90;;;;;;4846331;29;20418;-85
2022/07/11 07:06:29;;;;;;;0.22;0.17;;;17.20;99.90;;;;;;4846430;29;20061;-84
2022/07/11 07:08:54;;;;;;;0.30;0.10;;;17.10;99.90;;;;;;4863403;29;20048;-84
2022/07/11 07:11:20;;;;;;;0.52;0.13;;;17.10;99.90;;;;;;4862965;29;20128;-85
2022/07/11 07:13:47;;;;;;;0.22;0.10;;;17.30;99.90;;;;;;4862924;29;20109;-84
2022/07/11 07:16:13;;;;;;;0.17;0.10;;;17.20;99.90;;;;;;4862148;29;20045;-84
2022/07/11 07:18:41;;;;;;;0.88;0.65;;;17.30;99.90;;;;;;4862673;29;20045;-85
2022/07/11 07:21:07;;;;;;;0.15;0.10;;;17.40;99.90;;;;;;4863429;29;20508;-86
2022/07/11 07:23:33;;;;;;;0.20;0.10;;;17.30;99.90;;;;;;4847473;29;20088;-85
2022/07/11 07:25:58;;;;;;;0.00;0.00;;;17.30;99.90;;;;;;4865515;29;20377;-85
2022/07/11 07:28:28;;;;;;;0.30;0.10;;;17.40;99.90;;;;;;4845510;29;20144;-86
2022/07/11 07:30:54;;;;;;;0.57;0.10;;;17.50;99.90;;;;;;4863715;29;20095;-86
2022/07/11 07:33:20;;;;;;;0.20;0.10;;;17.50;99.90;;;;;;4867848;29;20056;-85
2022/07/11 07:35:45;;;;;;;0.40;0.10;;;17.60;99.90;;;;;;4866259;29;20419;-86
2022/07/11 07:38:11;;;;;;;0.10;0.10;;;17.70;99.90;;;;;;4846693;29;20411;-85
2022/07/11 07:40:37;;;;;;;0.38;0.10;;;17.60;99.90;;;;;;4846424;29;20053;-85
2022/07/11 07:43:02;;;;;;;0.10;0.00;;;17.60;99.90;;;;;;4861729;29;20129;-86
2022/07/11 07:45:28;;;;;;;0.15;0.10;;;17.70;99.90;;;;;;4845554;29;20487;-88
2022/07/11 07:47:57;;;;;;;0.10;0.00;;;17.60;99.90;;;;;;4861926;29;20085;-84
2022/07/11 07:50:23;;;;;;;0.45;0.10;;;17.60;99.90;;;;;;4858312;29;20053;-85
2022/07/11 07:52:48;;;;;;;1.02;0.10;;;17.60;99.90;;;;;;4846712;29;20085;-83
2022/07/11 07:55:14;;;;;;;0.20;0.10;;;17.60;99.90;;;;;;4862922;29;20057;-86
2022/07/11 07:57:40;;;;;;;0.00;0.00;;;17.60;99.90;;;;;;4861981;29;20069;-86
2022/07/11 08:02:50;;;;;;;0.10;0.10;;;17.50;99.90;;;;;;4862886;29;20447;-86
2022/07/11 08:05:18;;;;;;;0.03;0.00;;;17.50;99.90;;;;;;4850874;29;20113;-86
2022/07/11 08:07:43;;;;;;;0.00;0.00;;;17.70;99.90;;;;;;4863448;29;20041;-87
2022/07/11 08:10:10;;;;;;;0.55;0.10;;;18.00;99.90;;;;;;4845685;29;20057;-86
2022/07/11 08:12:36;;;;;;;0.50;0.00;;;18.20;99.90;;;;;;4861873;29;20526;-86
2022/07/11 08:15:02;;;;;;;0.10;0.10;;;18.30;99.90;;;;;;4845598;29;20058;-86
2022/07/11 08:17:28;;;;;;;0.00;0.00;;;18.40;99.90;;;;;;4862260;29;20472;-86
2022/07/11 08:19:54;;;;;;;0.10;0.10;;;18.30;99.90;;;;;;4861428;29;20053;-88
2022/07/11 08:22:19;;;;;;;0.00;0.00;;;18.30;99.90;;;;;;4862056;29;20041;-87
2022/07/11 08:24:45;;;;;;;0.47;0.10;;;18.20;99.90;;;;;;4858528;29;20080;-88
2022/07/11 08:27:11;;;;;;;0.00;0.00;;;18.10;99.90;;;;;;4845029;29;20049;-88
2022/07/11 08:29:36;;;;;;;0.98;0.08;;;18.20;99.90;;;;;;4844871;29;20185;-90
2022/07/11 08:32:02;;;;;;;0.55;0.10;;;18.20;99.90;;;;;;4845369;29;20407;-89
2022/07/11 08:34:28;;;;;;;0.00;0.00;;;18.40;99.90;;;;;;4862038;29;20081;-90
2022/07/11 08:36:54;;;;;;;0.00;0.00;;;18.10;99.90;;;;;;4861828;29;20081;-87
2022/07/11 08:39:20;;;;;;;0.10;0.00;;;18.40;99.90;;;;;;4861539;29;20136;-88
2022/07/11 08:41:45;;;;;;;0.00;0.00;;;18.20;99.90;;;;;;4862340;29;20045;-87
2022/07/11 08:44:11;;;;;;;0.00;0.00;;;18.30;99.90;;;;;;4862564;29;20145;-87
2022/07/11 08:46:43;;;;;;;0.22;0.00;;;18.40;99.90;;;;;;4861776;29;20060;-91
2022/07/11 08:49:11;;;;;;;0.00;0.00;;;18.30;99.90;;;;;;4846295;29;20568;-89
2022/07/11 08:51:37;;;;;;;0.43;0.00;;;18.50;99.90;;;;;;4861525;29;20498;-89
2022/07/11 08:54:03;;;;;;;0.00;0.00;;;18.40;99.90;;;;;;4860746;29;20201;-90
2022/07/11 08:56:30;;;;;;;0.10;0.00;;;18.40;99.90;;;;;;4861224;29;20459;-85
2022/07/11 08:58:59;;;;;;;0.40;0.20;;;18.40;99.90;;;;;;4861341;29;20042;-88
2022/07/11 09:01:37;;;;;;;0.03;0.00;;;18.50;99.90;;;;;;4860975;29;20045;-90
2022/07/11 09:04:03;;;;;;;0.30;0.00;;;18.50;99.90;;;;;;4861555;29;20064;-87
2022/07/11 09:06:29;;;;;;;1.83;0.10;;;18.70;99.90;;;;;;4861426;29;20042;-88
2022/07/11 09:09:00;;;;;;;1.20;0.22;;;18.70;99.90;;;;;;4861123;29;20053;-88
2022/07/11 09:11:25;;;;;;;1.17;0.10;;;18.60;99.90;;;;;;4860783;29;20049;-86
2022/07/11 09:13:52;;;;;;;0.43;0.08;;;18.50;99.90;;;;;;4861488;29;20050;-89
2022/07/11 09:16:26;;;;;;;0.93;0.08;;;18.50;99.90;;;;;;4860927;29;20057;-88
2022/07/11 09:18:52;;;;;;;0.00;0.00;;;18.50;99.90;;;;;;4844403;29;20091;-85
2022/07/11 09:26:51;;;;;;;0.00;0.00;;;18.70;99.90;;;;;;4861010;29;20065;-87
2022/07/11 09:29:21;;;;;;;0.00;0.00;;;18.80;99.90;;;;;;4844185;29;20157;-87
2022/07/11 09:31:48;;;;;;;0.10;0.00;;;18.90;99.90;;;;;;4861073;29;20048;-90
2022/07/11 09:34:16;;;;;;;0.00;0.00;;;18.90;99.90;;;;;;4859618;29;20427;-86
2022/07/11 09:36:48;;;;;;;1.45;0.10;;;19.00;99.90;;;;;;4860944;29;20128;-87
2022/07/11 09:39:21;;;;;;;0.00;0.00;;;19.10;99.90;;;;;;4860944;29;20505;-87
2022/07/11 09:41:51;;;;;;;0.03;0.00;;;18.90;99.90;;;;;;4861424;29;20049;-87
2022/07/11 09:44:27;;;;;;;0.00;0.00;;;18.90;99.90;;;;;;4843584;29;20060;-88
2022/07/11 09:46:53;;;;;;;0.05;0.00;;;18.80;99.90;;;;;;4844354;29;20056;-85
2022/07/11 09:49:31;;;;;;;0.00;0.00;;;18.80;99.90;;;;;;4843612;29;20049;-85
2022/07/11 09:52:13;;;;;;;1.10;0.10;;;18.90;99.90;;;;;;4843503;29;20448;-84
2022/07/11 09:54:56;;;;;;;0.00;0.00;;;18.90;99.90;;;;;;4859820;29;20061;-85
2022/07/11 09:57:37;;;;;;;0.00;0.00;;;19.00;99.90;;;;;;4860641;29;20049;-85
2022/07/11 10:00:09;;;;;;;0.90;0.00;;;19.00;99.90;;;;;;4860551;29;20050;-84
2022/07/11 10:02:35;;;;;;;0.45;0.03;;;19.10;99.90;;;;;;4843414;29;20129;-85
2022/07/11 10:05:02;;;;;;;0.00;0.00;;;19.20;99.90;;;;;;4860226;29;20049;-86
2022/07/11 10:07:29;;;;;;;0.00;0.00;;;19.30;99.90;;;;;;4843698;29;20081;-87
2022/07/11 10:09:56;;;;;;;0.22;0.03;;;19.30;99.90;;;;;;4843567;29;20049;-86
2022/07/11 10:12:22;;;;;;;0.20;0.00;;;19.40;99.90;;;;;;4843524;29;20089;-87
2022/07/11 10:14:49;;;;;;;0.00;0.00;;;19.30;99.90;;;;;;4859907;29;20057;-86
2022/07/11 10:17:26;;;;;;;0.00;0.00;;;19.40;99.90;;;;;;4854913;29;20057;-87
2022/07/11 10:20:04;;;;;;;0.45;0.10;;;19.40;99.90;;;;;;4842095;29;20046;-87
2022/07/11 10:22:53;;;;;;;0.80;0.00;;;19.30;99.90;;;;;;4842467;29;20114;-83
2022/07/11 10:25:35;;;;;;;0.20;0.00;;;19.30;99.90;;;;;;4843830;29;20412;-87
2022/07/11 10:28:22;;;;;;;0.10;0.00;;;19.20;99.90;;;;;;4843117;29;20492;-87
2022/07/11 10:30:50;;;;;;;0.13;0.10;;;19.20;99.90;;;;;;4825630;29;20054;-84
2022/07/11 10:33:17;;;;;;;0.47;0.10;;;19.10;99.90;;;;;;4859799;29;20056;-84
2022/07/11 10:35:45;;;;;;;0.98;0.00;;;19.10;99.90;;;;;;4843913;29;20369;-84
2022/07/11 10:38:12;;;;;;;0.20;0.00;;;19.10;99.90;;;;;;4864203;29;20052;-85
2022/07/11 10:40:50;;;;;;;0.00;0.00;;;19.20;99.90;;;;;;4864005;29;20053;-84
2022/07/11 10:43:33;;;;;;;0.00;0.00;;;19.20;99.90;;;;;;4864052;29;20139;-84
2022/07/11 10:46:04;;;;;;;0.20;0.10;;;19.20;99.90;;;;;;4863641;29;20098;-84
2022/07/11 10:48:32;;;;;;;0.00;0.00;;;19.20;99.90;;;;;;4863514;29;20128;-85
2022/07/11 10:51:47;;;;;;;0.50;0.00;;;19.20;99.90;;;;;;4863716;29;20050;-85
2022/07/11 10:54:44;;;;;;;1.40;0.00;;;19.30;99.90;;;;;;4824572;29;20444;-85
2022/07/11 10:57:25;;;;;;;0.47;0.00;;;19.40;99.90;;;;;;4824955;29;20054;-84
2022/07/11 11:00:04;;;;;;;0.00;0.00;;;19.50;99.90;;;;;;4826513;29;20046;-89
2022/07/11 11:02:31;;;;;;;0.00;0.00;;;19.60;99.90;;;;;;4808513;29;20579;-86
2022/07/11 11:04:58;;;;;;;0.17;0.10;;;19.60;99.90;;;;;;4826117;29;20501;-86
2022/07/11 11:07:39;;;;;;;0.08;0.00;;;19.60;99.90;;;;;;4812827;29;20083;-87
2022/07/11 11:10:29;;;;;;;0.08;0.00;;;19.80;99.90;;;;;;4809483;29;20419;-84
2022/07/11 11:13:09;;;;;;;0.00;0.00;;;20.00;99.90;;;;;;4823640;29;20062;-84
2022/07/11 11:15:41;;;;;;;0.10;0.00;;;20.00;99.90;;;;;;4824517;29;20058;-86
2022/07/11 11:18:36;;;;;;;1.10;0.20;;;20.10;99.90;;;;;;4824265;29;20090;-86
2022/07/11 11:21:07;;;;;;;0.10;0.03;;;20.20;99.90;;;;;;4755540;30;20071;-86
2022/07/11 11:23:41;;;;;;;0.20;0.10;;;20.40;99.90;;;;;;4755376;29;20066;-84
2022/07/11 11:26:11;;;;;;;0.10;0.00;;;20.30;99.90;;;;;;4754570;30;20173;-85
2022/07/11 11:28:57;;;;;;;1.48;0.00;;;20.20;99.90;;;;;;4755421;30;20051;-89
2022/07/11 11:31:23;;;;;;;0.63;0.00;;;20.30;99.90;;;;;;4770069;30;20067;-87
2022/07/11 11:33:49;;;;;;;0.10;0.10;;;20.40;99.90;;;;;;4772690;30;20118;-88
2022/07/11 11:36:17;;;;;;;0.00;0.00;;;20.50;99.90;;;;;;4788353;29;20047;-88
2022/07/11 11:38:45;;;;;;;0.30;0.00;;;20.40;99.90;;;;;;4772934;30;20087;-85
2022/07/11 11:41:14;;;;;;;0.10;0.10;;;20.60;99.90;;;;;;4773098;29;20490;-84
2022/07/11 11:43:47;;;;;;;0.10;0.00;;;20.60;99.90;;;;;;4788074;29;20527;-84
2022/07/11 11:46:18;;;;;;;0.00;0.00;;;20.50;99.90;;;;;;4788016;29;20139;-85
2022/07/11 11:48:47;;;;;;;0.15;0.15;;;20.40;99.90;;;;;;4772378;30;20421;-85
2022/07/11 11:51:14;;;;;;;0.17;0.00;;;20.40;99.90;;;;;;4772637;30;20064;-87
2022/07/11 11:53:40;;;;;;;0.13;0.00;;;20.30;99.90;;;;;;4787564;29;20094;-84
2022/07/11 11:56:23;;;;;;;0.10;0.00;;;20.40;99.90;;;;;;4787540;29;20152;-86
2022/07/11 11:58:51;;;;;;;0.28;0.03;;;20.90;99.90;;;;;;4844075;29;20049;-88
2022/07/11 12:01:25;;;;;;;1.10;0.10;;;20.50;99.90;;;;;;4843949;29;20054;-86
2022/07/11 12:03:54;;;;;;;0.00;0.00;;;20.50;99.90;;;;;;4852038;29;20042;-88
2022/07/11 12:06:42;;;;;;;0.05;0.00;;;20.50;99.90;;;;;;4845527;29;20120;-86
2022/07/11 12:09:13;;;;;;;0.00;0.00;;;20.70;99.90;;;;;;4862099;29;20050;-92
2022/07/11 12:11:41;;;;;;;0.03;0.00;;;20.50;99.90;;;;;;4862119;29;20125;-85
2022/07/11 12:14:09;;;;;;;0.98;0.00;;;20.40;99.90;;;;;;4861959;29;20140;-88
2022/07/11 12:16:39;;;;;;;0.15;0.00;;;20.50;99.90;;;;;;4861990;29;20388;-88
2022/07/11 12:19:07;;;;;;;0.75;0.10;;;20.50;99.90;;;;;;4845395;29;20049;-87
2022/07/11 12:21:35;;;;;;;0.00;0.00;;;20.60;99.90;;;;;;4857552;29;20411;-89
2022/07/11 12:24:06;;;;;;;0.00;0.00;;;20.50;99.90;;;;;;4862026;29;20460;-89
2022/07/11 12:26:35;;;;;;;0.00;0.00;;;20.40;99.90;;;;;;4861855;29;20487;-86
2022/07/11 12:29:05;;;;;;;0.00;0.00;;;20.50;99.90;;;;;;4861816;29;20137;-90
2022/07/11 12:32:20;;;;;;;0.00;0.00;;;20.70;99.90;;;;;;4845118;29;20089;-91
2022/07/11 12:35:13;;;;;;;0.00;0.00;;;20.90;99.90;;;;;;4783718;30;20510;-91
2022/07/11 12:37:53;;;;;;;1.17;0.00;;;20.70;99.90;;;;;;4749047;30;20118;-89
2022/07/11 12:40:19;;;;;;;0.00;0.00;;;20.80;99.90;;;;;;4751272;30;20059;-93
2022/07/11 12:42:48;;;;;;;0.00;0.00;;;20.60;99.90;;;;;;4761799;30;20181;-88
2022/07/11 12:45:15;;;;;;;0.00;0.00;;;20.60;99.90;;;;;;4754895;30;20071;-89
2022/07/11 12:47:46;;;;;;;0.00;0.00;;;20.60;99.90;;;;;;4754247;30;20055;-88
2022/07/11 12:50:15;;;;;;;0.10;0.00;;;20.90;99.90;;;;;;4753822;30;20058;-85
2022/07/11 12:52:45;;;;;;;1.85;0.00;;;20.60;99.90;;;;;;4754224;30;20067;-87
2022/07/11 12:55:19;;;;;;;0.08;0.00;;;20.40;99.90;;;;;;4754028;30;20455;-87
2022/07/11 12:58:02;;;;;;;0.08;0.00;;;20.30;99.90;;;;;;4763694;30;20067;-87
2022/07/11 13:00:30;;;;;;;0.13;0.00;;;20.20;99.90;;;;;;4767987;30;20071;-87
2022/07/11 13:02:56;;;;;;;0.10;0.00;;;20.40;99.90;;;;;;4768506;30;20052;-87
2022/07/11 13:05:21;;;;;;;0.28;0.00;;;20.30;99.90;;;;;;4768613;30;20068;-88